createdAt,value
2022-09-07T00:03:57.988Z,8.50
2022-09-07T00:09:03.393Z,8.50
2022-09-07T00:14:07.809Z,8.30
2022-09-07T00:19:10.676Z,7.80
2022-09-07T00:24:13.646Z,8.10
2022-09-07T00:29:16.575Z,8.70
2022-09-07T00:34:19.601Z,8.10
2022-09-07T00:39:22.367Z,8.80
2022-09-07T00:44:43.843Z,7.93
2022-09-07T00:49:54.626Z,7.88
2022-09-07T01:00:07.385Z,8.77
2022-09-07T01:05:35.821Z,9.55
2022-09-07T01:10:39.525Z,8.23
2022-09-07T01:16:09.456Z,8.70
2022-09-07T01:21:22.136Z,7.80
2022-09-07T01:27:08.475Z,9.60
2022-09-07T01:32:26.641Z,9.85
2022-09-07T01:37:55.056Z,8.88
2022-09-07T01:43:16.893Z,8.68
2022-09-07T01:48:21.782Z,10.00
2022-09-07T01:53:50.840Z,9.85
2022-09-07T01:59:07.747Z,9.50
2022-09-07T02:04:20.786Z,9.10
2022-09-07T02:09:35.271Z,10.57
2022-09-07T02:14:44.029Z,9.93
2022-09-07T02:20:03.691Z,10.10
2022-09-07T02:25:09.418Z,10.32
2022-09-07T02:30:13.693Z,10.35
2022-09-07T02:35:17.127Z,10.82
2022-09-07T02:40:20.182Z,10.15
2022-09-07T02:45:23.331Z,11.10
2022-09-07T02:50:44.674Z,11.75
2022-09-07T02:56:34.026Z,9.73
2022-09-07T03:02:05.070Z,11.18
2022-09-07T03:07:55.513Z,11.93
2022-09-07T03:12:58.341Z,10.02
2022-09-07T03:18:01.186Z,10.63
2022-09-07T03:23:05.110Z,12.48
2022-09-07T03:28:08.314Z,10.55
2022-09-07T03:33:11.540Z,11.25
2022-09-07T03:38:14.477Z,11.55
2022-09-07T03:43:17.889Z,11.30
2022-09-07T03:48:20.699Z,12.65
2022-09-07T03:53:23.568Z,13.32
2022-09-07T03:58:28.335Z,12.05
2022-09-07T04:03:32.434Z,11.48
2022-09-07T04:08:37.515Z,13.18
2022-09-07T04:13:41.653Z,13.57
2022-09-07T04:18:45.339Z,13.65
2022-09-07T04:23:49.193Z,11.52
2022-09-07T04:28:53.033Z,13.80
2022-09-07T04:33:56.755Z,10.52
2022-09-07T04:39:02.725Z,10.30
2022-09-07T04:44:05.808Z,10.60
2022-09-07T04:49:12.121Z,11.25
2022-09-07T04:54:15.105Z,12.73
2022-09-07T04:59:18.166Z,13.98
2022-09-07T05:04:21.096Z,11.32
2022-09-07T05:09:24.015Z,12.10
2022-09-07T05:14:27.032Z,12.00
2022-09-07T05:19:29.835Z,8.90
2022-09-07T05:24:36.795Z,8.65
2022-09-07T05:35:02.595Z,7.38
2022-09-07T05:40:06.288Z,8.07
2022-09-07T05:45:10.785Z,7.22
2022-09-07T05:50:13.599Z,7.60
2022-09-07T05:55:29.488Z,25.42
2022-09-07T06:00:33.678Z,9.18
2022-09-07T06:05:36.562Z,7.78
2022-09-07T06:15:43.360Z,7.45
2022-09-07T06:20:46.483Z,5.90
2022-09-07T06:25:50.032Z,6.05
2022-09-07T06:30:52.879Z,5.18
2022-09-07T06:36:03.923Z,5.28
2022-09-07T06:52:04.677Z,5.07
2022-09-07T06:57:09.450Z,5.30
2022-09-07T07:02:15.095Z,5.57
2022-09-07T07:07:18.320Z,6.28
2022-09-07T07:17:22.713Z,5.30
2022-09-07T07:27:49.642Z,5.88
2022-09-07T07:32:53.085Z,5.35
2022-09-07T07:43:18.980Z,4.65
2022-09-07T07:48:21.988Z,5.40
2022-09-07T07:53:41.956Z,5.05
2022-09-07T07:58:48.049Z,5.50
2022-09-07T08:03:51.124Z,5.05
2022-09-07T08:08:56.038Z,5.25
2022-09-07T08:14:00.357Z,5.20
2022-09-07T08:19:03.445Z,5.00
2022-09-07T08:24:06.433Z,5.05
2022-09-07T08:29:09.164Z,5.20
2022-09-07T08:34:12.040Z,5.55
2022-09-07T08:39:14.763Z,4.90
2022-09-07T08:44:49.633Z,4.70
2022-09-07T08:50:02.173Z,4.20
2022-09-07T08:55:20.428Z,5.18
2022-09-07T09:00:23.776Z,4.80
2022-09-07T09:05:37.189Z,5.28
2022-09-07T09:10:58.204Z,4.22
2022-09-07T09:16:32.529Z,4.43
2022-09-07T09:21:35.775Z,4.90
2022-09-07T09:26:43.054Z,4.95
2022-09-07T09:31:47.479Z,3.75
2022-09-07T09:36:54.256Z,4.05
2022-09-07T09:42:20.531Z,4.32
2022-09-07T09:47:34.215Z,4.05
2022-09-07T09:52:46.401Z,3.95
2022-09-07T10:08:58.963Z,4.03
2022-09-07T10:14:01.873Z,3.92
2022-09-07T10:19:04.606Z,3.97
2022-09-07T10:24:07.351Z,4.00
2022-09-07T10:29:22.691Z,4.35
2022-09-07T10:34:43.428Z,3.90
2022-09-07T10:40:06.211Z,3.50
2022-09-07T10:46:03.736Z,4.10
2022-09-07T10:51:18.016Z,4.18
2022-09-07T10:56:33.321Z,4.28
2022-09-07T11:01:53.487Z,2.80
2022-09-07T11:07:59.064Z,3.30
2022-09-07T11:13:06.323Z,3.05
2022-09-07T11:18:14.534Z,3.50
2022-09-07T11:23:46.299Z,2.85
2022-09-07T11:34:45.207Z,3.60
2022-09-07T11:39:58.153Z,3.03
2022-09-07T11:45:31.418Z,3.40
2022-09-07T11:50:39.506Z,4.50
2022-09-07T11:55:47.337Z,4.07
2022-09-07T12:01:16.223Z,4.73
2022-09-07T12:06:27.210Z,4.13
2022-09-07T12:12:14.412Z,4.55
2022-09-07T12:17:26.680Z,5.55
2022-09-07T12:22:29.535Z,5.25
2022-09-07T12:27:32.851Z,5.45
2022-09-07T12:32:56.857Z,5.50
2022-09-07T12:38:19.238Z,6.00
2022-09-07T12:43:21.923Z,5.55
2022-09-07T12:48:52.217Z,6.53
2022-09-07T12:54:35.877Z,6.28
2022-09-07T13:00:11.627Z,6.07
2022-09-07T13:05:41.069Z,6.50
2022-09-07T13:10:44.516Z,6.88
2022-09-07T13:16:05.202Z,7.15
2022-09-07T13:21:08.068Z,8.13
2022-09-07T13:26:54.806Z,8.20
2022-09-07T13:32:17.674Z,9.30
2022-09-07T13:37:25.066Z,10.02
2022-09-07T13:42:33.719Z,9.95
2022-09-07T13:48:01.900Z,9.90
2022-09-07T13:53:44.600Z,9.02
2022-09-07T13:58:52.172Z,9.90
2022-09-07T14:04:09.508Z,10.43
2022-09-07T14:09:24.000Z,10.18
2022-09-07T14:14:33.258Z,10.48
2022-09-07T14:19:41.906Z,9.70
2022-09-07T14:25:01.913Z,11.00
2022-09-07T14:30:23.465Z,9.48
2022-09-07T14:35:33.911Z,9.20
2022-09-07T14:40:36.842Z,8.65
2022-09-07T14:45:39.911Z,8.50
2022-09-07T14:51:05.473Z,8.30
2022-09-07T14:56:35.912Z,7.68
2022-09-07T15:01:38.990Z,7.72
2022-09-07T15:12:09.616Z,6.72
2022-09-07T15:22:48.903Z,7.65
2022-09-07T15:27:51.826Z,6.10
2022-09-07T15:32:57.391Z,5.80
2022-09-07T15:38:02.270Z,5.47
2022-09-07T15:43:19.474Z,5.50
2022-09-07T15:48:27.553Z,5.28
2022-09-07T15:58:55.191Z,5.30
2022-09-07T16:03:59.073Z,5.20
2022-09-07T16:09:02.429Z,5.43
2022-09-07T16:14:05.346Z,5.70
2022-09-07T16:19:12.718Z,5.43
2022-09-07T16:24:17.408Z,5.93
2022-09-07T16:29:20.543Z,5.75
2022-09-07T16:34:23.295Z,6.10
2022-09-07T16:39:26.517Z,5.18
2022-09-07T16:44:29.455Z,6.90
2022-09-07T16:49:32.496Z,6.88
2022-09-07T16:54:35.828Z,6.50
2022-09-07T16:59:38.724Z,7.47
2022-09-07T17:04:41.631Z,6.40
2022-09-07T17:09:44.598Z,7.45
2022-09-07T17:14:47.420Z,7.50
2022-09-07T17:19:50.834Z,7.13
2022-09-07T17:24:55.538Z,7.72
2022-09-07T17:29:58.357Z,7.05
2022-09-07T17:35:01.347Z,7.35
2022-09-07T17:40:06.356Z,7.10
2022-09-07T17:45:11.541Z,7.57
2022-09-07T17:50:14.436Z,6.40
2022-09-07T17:55:17.337Z,8.02
2022-09-07T18:00:20.245Z,7.88
2022-09-07T18:05:22.982Z,8.38
2022-09-07T18:10:26.628Z,8.43
2022-09-07T18:15:29.747Z,8.45
2022-09-07T18:20:34.458Z,8.93
2022-09-07T18:25:37.748Z,8.80
2022-09-07T18:30:42.276Z,10.40
2022-09-07T18:35:47.268Z,10.30
2022-09-07T18:40:51.138Z,9.15
2022-09-07T18:46:00.105Z,10.15
2022-09-07T18:51:03.600Z,10.77
2022-09-07T18:56:15.737Z,10.43
2022-09-07T19:01:18.985Z,9.07
2022-09-07T19:06:24.639Z,9.88
2022-09-07T19:11:27.553Z,9.98
2022-09-07T19:16:31.597Z,10.55
2022-09-07T19:21:39.316Z,10.15
2022-09-07T19:26:48.271Z,10.57
2022-09-07T19:32:06.918Z,10.48
2022-09-07T19:37:12.653Z,10.05
2022-09-07T19:42:15.963Z,10.57
2022-09-07T19:47:19.446Z,9.45
2022-09-07T19:52:22.302Z,10.27
2022-09-07T19:57:25.130Z,10.65
2022-09-07T20:02:27.912Z,10.55
2022-09-07T20:07:30.759Z,10.75
2022-09-07T20:12:33.582Z,11.38
2022-09-07T20:17:37.634Z,10.45
2022-09-07T20:22:40.518Z,11.20
2022-09-07T20:27:43.807Z,10.13
2022-09-07T20:32:46.544Z,11.02
2022-09-07T20:37:49.543Z,11.30
2022-09-07T20:42:52.427Z,10.45
2022-09-07T20:47:55.278Z,11.43
2022-09-07T20:52:58.154Z,12.38
2022-09-07T20:58:00.885Z,12.05
2022-09-07T21:03:04.225Z,11.48
2022-09-07T21:08:07.216Z,12.07
2022-09-07T21:13:10.570Z,12.18
2022-09-07T21:18:16.894Z,12.43
2022-09-07T21:23:19.763Z,11.98
2022-09-07T21:28:23.418Z,12.82
2022-09-07T21:33:28.393Z,12.20
2022-09-07T21:38:31.163Z,13.35
2022-09-07T21:43:34.981Z,13.00
2022-09-07T21:48:38.158Z,13.32
2022-09-07T21:53:42.067Z,13.73
2022-09-07T21:58:44.953Z,15.07
2022-09-07T22:03:56.954Z,14.65
2022-09-07T22:09:00.910Z,14.80
2022-09-07T22:14:05.356Z,15.23
2022-09-07T22:19:08.165Z,15.77
2022-09-07T22:24:15.183Z,14.63
2022-09-07T22:29:17.975Z,16.15
2022-09-07T22:34:20.907Z,16.42
2022-09-07T22:39:23.739Z,16.95
2022-09-07T22:44:27.591Z,16.92
2022-09-07T22:49:30.351Z,17.40
2022-09-07T22:54:33.118Z,17.15
2022-09-07T22:59:35.942Z,18.20
2022-09-07T23:04:39.219Z,18.00
2022-09-07T23:09:42.256Z,18.83
2022-09-07T23:14:45.036Z,19.10
2022-09-07T23:19:48.121Z,18.25
2022-09-07T23:24:50.879Z,19.63
2022-09-07T23:29:53.558Z,21.15
2022-09-07T23:34:56.243Z,19.60
2022-09-07T23:39:59.038Z,19.15
2022-09-07T23:45:03.190Z,19.52
2022-09-07T23:50:07.052Z,19.20
2022-09-07T23:55:11.091Z,19.42
